AirNav   TITAN Aviation Fuels
 
 1473 users online  

1I8 Converse Airport
Converse, Indiana, USA

GOING TO CONVERSE?


FAA INFORMATION EFFECTIVE 15 JULY 2021

Location

FAA Identifier: 1I8
Lat/Long: 40-34-23.5300N 085-53-58.5500W
40-34.392167N 085-53.975833W
40.5732028,-85.8995972
(estimated)
Elevation: 840 ft. / 256 m (estimated)
Variation: 03W (1985)
From city: 1 mile W of CONVERSE, IN
Time zone: UTC -4 (UTC -5 during Standard Time)
Zip code: 46919

Airport Operations

Airport use: Open to the public
Activation date: 10/1944
Control tower: no
ARTCC: CHICAGO CENTER
FSS: TERRE HAUTE FLIGHT SERVICE STATION
NOTAMs facility: HUF (NOTAM-D service available)
Attendance: UNATNDD
Wind indicator: yes
Segmented circle: no

Airport Communications

CTAF: 122.9
WX AWOS-3PT at OKK (8 nm W): 113.5 (765-452-3014)
WX AWOS-3 at MZZ (11 nm SE): 108.6 (765-674-1317)

Nearby radio navigation aids

VOR radial/distance  VOR name  Freq  Var
OKKr074/7.7KOKOMO VORTAC113.5005W
MZZr298/11.1MARION VOR/DME108.6003W
GUSr113/12.3GRISSOM VORTAC108.4502W
MIEr314/30.7MUNCIE VOR/DME114.4003W

 
NDB name  Hdg/Dist  Freq  Var  ID
METROPOLITAN013/38.733803WUMP ..- -- .--.

Airport Services

Airframe service: NONE
Powerplant service: NONE
Bottled oxygen: NONE
Bulk oxygen: NONE

Runway Information

Runway 7/25

Dimensions: 1800 x 40 ft. / 549 x 12 m
Surface: asphalt, in good condition
RUNWAY 7  RUNWAY 25
Traffic pattern: leftleft
Displaced threshold: 38 ft.38 ft.
Markings: basic, in fair conditionbasic, in fair condition
Obstructions: 10 ft. crops, 210 ft. from runway, 1:1 slope to clear
RY 07 CROPS 90 FT R OF CNTRLN 50 FT SW OF THLD
10 ft. crops, 210 ft. from runway, 1:1 slope to clear
RY 25 2 FT UTILITY BOX 40 FT R OF CNTRLN 20 FT NE OF THLD

Airport Ownership and Management from official FAA records

Ownership: Publicly-owned
Owner: CONVERSE BOAC
PO BOX 476
CONVERSE, IN 46919
Phone (765) 395-3459
Manager: CONVERSE BOAC
PO BOX 476
CONVERSE, IN 46919
Phone (765) 395-3459

Airport Operational Statistics

Aircraft based on the field: 8
Single engine airplanes: 4
Ultralights: 4
    
Aircraft operations: avg 24/week *
90% local general aviation
10% transient general aviation
* for 12-month period ending 31 December 2018

Additional Remarks

RADIO CTLD AIRPLANES ON & INVOF ARPT.
FOR CD CTC CHICAGO ARTCC AT 630-906-8921.
(RWY LENGTH SOURCE DATE, RWY 07/25) RY EXTDD 46 FT EQUALLY AT BOTH ENDS.

Instrument Procedures

There are no published instrument procedures at 1I8.

Some nearby airports with instrument procedures:

KOKK - Kokomo Municipal Airport (8 nm W)
KMZZ - Marion Municipal Airport - McKinney Field (11 nm SE)
KIWH - Wabash Municipal Airport (12 nm N)
KGUS - Grissom Air Reserve Base (12 nm W)
I76 - Peru Municipal Airport (17 nm NW)
 
Loc | Ops | Rwys | IFR | FBO | Links
Com | Nav | Svcs | Stats | Notes
Area around 1I8 (Converse Airport)
 
Road maps at: MapQuest Bing Google
 
Aerial photo
WARNING: Photo may not be current or correct
Aerial photo of 1I8 (Converse Airport)
Taken in the Spring of 2020

Do you have a better or more recent aerial photo of Converse Airport that you would like to share? If so, please send us your photo.

 
Sectional chart

 
Airport distance calculator
Flying to Converse Airport? Find the distance to fly.

From to 1I8

Sunrise and sunset
Times for 26-Jul-2021
 Local
(UTC-4)
 Zulu
(UTC)
Morning civil twilight06:0510:05
Sunrise06:3610:36
Sunset21:0401:04
Evening civil twilight21:3501:35

Current date and time
Zulu (UTC)  26-Jul-2021 21:04:27
Local (UTC-4)  26-Jul-2021 17:04:27
 
METAR
KOKK 
8nm W 
261556Z AUTO 30006KT 10SM CLR 28/21 A3006 RMK AO2 SLP171 T02830206 PNO $
KMZZ 
11nm SE 
262055Z AUTO 33004KT 7SM CLR 29/18 A3003 RMK AO2 T02880180
KGUS 
12nm W 
262056Z AUTO 02008KT 10SM CLR 30/17 A3002 RMK AO2 SLP163 T03020169 58008 $
TAF
KGUS 
12nm W 
261300Z 2613/2719 VRB06KT 9999 FEW040 QNH3000INS TX30/2719Z TN16/2711Z
NOTAMs
Click for the latest NOTAMs
NOTAMs are issued by the DoD/FAA and will open in a separate window not controlled by AirNav.

 

 
 

Would you like to see your business listed on this page?

 If your business provides an interesting product or service to pilots, flight crews, aircraft, or users of the Converse Airport, you should consider listing it here.  To start the listing process, click on the button below
 
Add a business
 

Other Pages about Converse Airport

Update a link
 
Copyright © AirNav, LLC. All rights reserved. Privacy Policy  Contact